sensor_id;sensor_type;location;lat;lon;timestamp;temperature;humidity
41987;DHT22;28361;50.740;7.084;2022-09-21T10:32:17;19.50;1.00
41987;DHT22;28361;50.740;7.084;2022-09-21T10:37:36;20.40;1.00
41987;DHT22;28361;50.740;7.084;2022-09-21T10:43:04;20.60;1.00
41987;DHT22;28361;50.740;7.084;2022-09-21T10:45:34;20.50;1.00
41987;DHT22;28361;50.740;7.084;2022-09-21T10:50:44;21.20;1.00
41987;DHT22;28361;50.740;7.084;2022-09-21T10:53:11;21.40;1.00
41987;DHT22;28361;50.740;7.084;2022-09-21T10:55:43;21.40;1.00
41987;DHT22;28361;50.740;7.084;2022-09-21T10:58:11;21.50;1.00
41987;DHT22;28361;50.740;7.084;2022-09-21T11:00:44;21.50;1.00
41987;DHT22;28361;50.740;7.084;2022-09-21T11:06:03;21.50;1.00
41987;DHT22;28361;50.740;7.084;2022-09-21T11:22:31;21.70;1.00
41987;DHT22;28361;50.740;7.084;2022-09-21T11:27:46;22.80;1.00
41987;DHT22;28361;50.740;7.084;2022-09-21T11:30:16;22.60;1.00
41987;DHT22;28361;50.740;7.084;2022-09-21T11:33:02;22.60;1.00
41987;DHT22;28361;50.740;7.084;2022-09-21T11:38:52;22.60;1.00
41987;DHT22;28361;50.740;7.084;2022-09-21T11:44:35;23.60;1.00
41987;DHT22;28361;50.740;7.084;2022-09-21T11:50:12;22.80;1.00
41987;DHT22;28361;50.740;7.084;2022-09-21T11:55:41;23.00;1.00
41987;DHT22;28361;50.740;7.084;2022-09-21T11:58:20;23.30;1.00
41987;DHT22;28361;50.740;7.084;2022-09-21T12:04:01;23.00;1.00
41987;DHT22;28361;50.740;7.084;2022-09-21T12:06:37;22.80;1.00
41987;DHT22;28361;50.740;7.084;2022-09-21T12:09:48;22.30;1.00
41987;DHT22;28361;50.740;7.084;2022-09-21T12:12:42;22.40;1.00
41987;DHT22;28361;50.740;7.084;2022-09-21T12:15:16;22.80;1.00
41987;DHT22;28361;50.740;7.084;2022-09-21T12:18:02;22.30;1.00
41987;DHT22;28361;50.740;7.084;2022-09-21T12:20:50;22.50;1.00
41987;DHT22;28361;50.740;7.084;2022-09-21T12:23:27;22.60;1.00
41987;DHT22;28361;50.740;7.084;2022-09-21T12:25:57;23.00;1.00
41987;DHT22;28361;50.740;7.084;2022-09-21T12:28:38;23.00;1.00
41987;DHT22;28361;50.740;7.084;2022-09-21T12:31:19;22.60;1.00
41987;DHT22;28361;50.740;7.084;2022-09-21T12:34:07;22.80;1.00
41987;DHT22;28361;50.740;7.084;2022-09-21T12:36:40;22.60;1.00
41987;DHT22;28361;50.740;7.084;2022-09-21T12:39:29;22.90;1.00
41987;DHT22;28361;50.740;7.084;2022-09-21T12:42:25;23.00;1.00
41987;DHT22;28361;50.740;7.084;2022-09-21T12:45:06;22.70;1.00
41987;DHT22;28361;50.740;7.084;2022-09-21T12:50:35;23.00;1.00
41987;DHT22;28361;50.740;7.084;2022-09-21T12:53:02;23.00;1.00
41987;DHT22;28361;50.740;7.084;2022-09-21T13:01:32;22.60;1.00
41987;DHT22;28361;50.740;7.084;2022-09-21T13:09:32;22.80;1.00
41987;DHT22;28361;50.740;7.084;2022-09-21T13:12:05;22.70;1.00
41987;DHT22;28361;50.740;7.084;2022-09-21T13:14:34;23.00;1.00
41987;DHT22;28361;50.740;7.084;2022-09-21T13:17:02;22.90;1.00
41987;DHT22;28361;50.740;7.084;2022-09-21T13:19:33;23.30;1.00
41987;DHT22;28361;50.740;7.084;2022-09-21T13:28:01;23.10;1.00
41987;DHT22;28361;50.740;7.084;2022-09-21T13:30:36;22.80;1.00
41987;DHT22;28361;50.740;7.084;2022-09-21T13:54:59;23.50;1.00
41987;DHT22;28361;50.740;7.084;2022-09-21T13:57:30;22.60;1.00
41987;DHT22;28361;50.740;7.084;2022-09-21T14:10:57;23.20;1.00
41987;DHT22;28361;50.740;7.084;2022-09-21T14:13:34;23.80;1.00
41987;DHT22;28361;50.740;7.084;2022-09-21T14:24:36;23.40;1.00
41987;DHT22;28361;50.740;7.084;2022-09-21T14:27:35;23.20;1.00
41987;DHT22;28361;50.740;7.084;2022-09-21T14:30:22;23.40;1.00
41987;DHT22;28361;50.740;7.084;2022-09-21T14:35:59;21.50;1.00
41987;DHT22;28361;50.740;7.084;2022-09-21T14:38:42;20.60;1.00
41987;DHT22;28361;50.740;7.084;2022-09-21T14:41:15;19.80;1.00
41987;DHT22;28361;50.740;7.084;2022-09-21T14:43:48;19.40;1.00
41987;DHT22;28361;50.740;7.084;2022-09-21T14:57:56;20.60;1.00
41987;DHT22;28361;50.740;7.084;2022-09-21T15:03:32;22.20;1.00
41987;DHT22;28361;50.740;7.084;2022-09-21T15:11:54;23.20;1.00
41987;DHT22;28361;50.740;7.084;2022-09-21T15:14:36;23.80;1.00
41987;DHT22;28361;50.740;7.084;2022-09-21T15:17:27;24.20;1.00
41987;DHT22;28361;50.740;7.084;2022-09-21T15:20:15;22.80;1.00
41987;DHT22;28361;50.740;7.084;2022-09-21T15:22:43;21.90;1.00
41987;DHT22;28361;50.740;7.084;2022-09-21T15:25:12;23.30;1.00
41987;DHT22;28361;50.740;7.084;2022-09-21T15:27:42;23.40;1.00
41987;DHT22;28361;50.740;7.084;2022-09-21T15:30:26;24.40;1.00
41987;DHT22;28361;50.740;7.084;2022-09-21T15:32:58;24.70;1.00
41987;DHT22;28361;50.740;7.084;2022-09-21T15:35:26;24.60;1.00
41987;DHT22;28361;50.740;7.084;2022-09-21T15:37:53;24.80;1.00
41987;DHT22;28361;50.740;7.084;2022-09-21T15:40:22;24.10;1.00
41987;DHT22;28361;50.740;7.084;2022-09-21T15:43:04;24.00;1.00
41987;DHT22;28361;50.740;7.084;2022-09-21T15:46:03;23.60;1.00
41987;DHT22;28361;50.740;7.084;2022-09-21T15:48:34;24.10;1.00
41987;DHT22;28361;50.740;7.084;2022-09-21T15:53:34;24.00;1.00
41987;DHT22;28361;50.740;7.084;2022-09-21T15:56:04;21.80;1.00
41987;DHT22;28361;50.740;7.084;2022-09-21T15:58:33;19.90;1.00
41987;DHT22;28361;50.740;7.084;2022-09-21T16:03:35;23.30;1.00
41987;DHT22;28361;50.740;7.084;2022-09-21T16:08:41;23.50;1.00
41987;DHT22;28361;50.740;7.084;2022-09-21T16:11:19;24.20;1.00
41987;DHT22;28361;50.740;7.084;2022-09-21T16:14:07;24.30;1.00
41987;DHT22;28361;50.740;7.084;2022-09-21T16:22:14;24.50;1.00
41987;DHT22;28361;50.740;7.084;2022-09-21T16:24:52;24.30;1.00
41987;DHT22;28361;50.740;7.084;2022-09-21T16:27:21;24.20;1.00
41987;DHT22;28361;50.740;7.084;2022-09-21T16:29:48;24.20;1.00
41987;DHT22;28361;50.740;7.084;2022-09-21T16:34:47;24.00;1.00
41987;DHT22;28361;50.740;7.084;2022-09-21T16:37:31;24.40;1.00
41987;DHT22;28361;50.740;7.084;2022-09-21T16:39:57;23.80;1.00
41987;DHT22;28361;50.740;7.084;2022-09-21T16:42:26;23.70;1.00
41987;DHT22;28361;50.740;7.084;2022-09-21T16:44:56;23.80;1.00
41987;DHT22;28361;50.740;7.084;2022-09-21T16:47:26;23.70;1.00
41987;DHT22;28361;50.740;7.084;2022-09-21T16:49:53;23.40;1.00
41987;DHT22;28361;50.740;7.084;2022-09-21T16:52:24;23.00;1.00
41987;DHT22;28361;50.740;7.084;2022-09-21T16:54:53;22.70;1.00
41987;DHT22;28361;50.740;7.084;2022-09-21T16:57:21;22.30;1.00
41987;DHT22;28361;50.740;7.084;2022-09-21T16:59:48;22.10;1.00
41987;DHT22;28361;50.740;7.084;2022-09-21T17:02:15;21.70;1.00
41987;DHT22;28361;50.740;7.084;2022-09-21T17:04:41;21.20;1.00
41987;DHT22;28361;50.740;7.084;2022-09-21T17:07:10;20.90;1.00
41987;DHT22;28361;50.740;7.084;2022-09-21T17:09:38;20.50;1.00
41987;DHT22;28361;50.740;7.084;2022-09-21T17:12:06;19.80;1.00
41987;DHT22;28361;50.740;7.084;2022-09-21T17:14:34;19.30;1.00
41987;DHT22;28361;50.740;7.084;2022-09-21T17:17:05;18.90;1.00
41987;DHT22;28361;50.740;7.084;2022-09-21T17:19:33;18.40;1.00
41987;DHT22;28361;50.740;7.084;2022-09-21T17:22:04;18.20;1.00
41987;DHT22;28361;50.740;7.084;2022-09-21T17:24:31;17.80;1.00
41987;DHT22;28361;50.740;7.084;2022-09-21T17:26:57;17.40;1.00
41987;DHT22;28361;50.740;7.084;2022-09-21T17:29:27;17.10;1.00
41987;DHT22;28361;50.740;7.084;2022-09-21T17:31:55;16.90;1.00
41987;DHT22;28361;50.740;7.084;2022-09-21T17:34:23;16.70;1.00
41987;DHT22;28361;50.740;7.084;2022-09-21T17:36:49;16.60;1.00
41987;DHT22;28361;50.740;7.084;2022-09-21T17:39:20;16.40;1.00
41987;DHT22;28361;50.740;7.084;2022-09-21T17:41:50;16.20;1.00
41987;DHT22;28361;50.740;7.084;2022-09-21T17:47:04;16.00;1.00
41987;DHT22;28361;50.740;7.084;2022-09-21T17:49:33;15.90;1.00
41987;DHT22;28361;50.740;7.084;2022-09-21T17:51:59;15.80;1.00
41987;DHT22;28361;50.740;7.084;2022-09-21T17:54:44;15.80;1.00
41987;DHT22;28361;50.740;7.084;2022-09-21T18:00:09;15.60;1.00
41987;DHT22;28361;50.740;7.084;2022-09-21T18:02:36;15.60;1.00
41987;DHT22;28361;50.740;7.084;2022-09-21T18:05:08;15.50;1.00
41987;DHT22;28361;50.740;7.084;2022-09-21T18:07:39;15.50;1.00
41987;DHT22;28361;50.740;7.084;2022-09-21T18:10:07;15.40;1.00
41987;DHT22;28361;50.740;7.084;2022-09-21T18:13:02;15.30;1.00
41987;DHT22;28361;50.740;7.084;2022-09-21T18:18:11;15.20;1.00
41987;DHT22;28361;50.740;7.084;2022-09-21T18:23:18;15.00;1.00
41987;DHT22;28361;50.740;7.084;2022-09-21T18:25:54;14.90;1.00
41987;DHT22;28361;50.740;7.084;2022-09-21T18:28:44;14.90;1.00
41987;DHT22;28361;50.740;7.084;2022-09-21T18:39:24;14.50;1.00
41987;DHT22;28361;50.740;7.084;2022-09-21T18:47:51;14.30;1.00
41987;DHT22;28361;50.740;7.084;2022-09-21T18:50:29;14.30;1.00
